Time;durP1;ratioP1;P1;durP2;ratioP2;P2;SDS_P1;SDS_P2;PMS_P1;PMS_P2;Temp;Humidity;BMP_temperature;BMP_pressure;BME280_temperature;BME280_humidity;BME280_pressure;Samples;Min_cycle;Max_cycle;Signal;HPM_P1;HPM_P2
2022/02/03 00:04:52;;;;;;;8.45;7.40;;;;;;;20.54;26.60;93689.78;4950564;28;96769;-53
2022/02/03 00:07:23;;;;;;;10.25;8.07;;;;;;;20.67;26.52;93693.44;4954054;28;96735;-54
2022/02/03 00:26:22;;;;;;;7.63;6.68;;;;;;;20.85;26.49;93697.81;4950052;28;96728;-46
2022/02/03 00:28:48;;;;;;;6.65;6.00;;;;;;;20.89;26.22;93698.53;4936823;28;96972;-46
2022/02/03 00:34:05;;;;;;;7.40;6.57;;;;;;;20.83;26.36;93697.47;4933336;28;97694;-47
2022/02/03 00:36:52;;;;;;;10.27;8.20;;;;;;;20.91;26.02;93715.31;4933625;28;96793;-47
2022/02/03 00:50:07;;;;;;;9.50;7.80;;;;;;;21.17;26.15;93729.31;4936383;28;97092;-53
2022/02/03 00:52:34;;;;;;;10.80;8.45;;;;;;;21.05;26.25;93721.72;4936591;28;99445;-49
2022/02/03 00:54:59;;;;;;;10.30;8.50;;;;;;;21.17;26.23;93726.56;4933384;28;99596;-48
2022/02/03 00:57:34;;;;;;;9.15;7.75;;;;;;;21.05;26.13;93721.72;4933726;28;96666;-47
2022/02/03 01:00:07;;;;;;;9.77;8.23;;;;;;;21.15;26.13;93726.22;4939965;28;97031;-50
2022/02/03 01:02:32;;;;;;;10.23;8.88;;;;;;;21.20;26.13;93722.19;4942664;28;99768;-53
2022/02/03 01:05:02;;;;;;;12.85;9.75;;;;;;;21.23;26.28;93733.09;4976839;28;99266;-50
2022/02/03 01:07:28;;;;;;;10.52;9.25;;;;;;;21.27;25.90;93735.75;4924208;28;96908;-50
2022/02/03 01:10:16;;;;;;;9.98;8.80;;;;;;;21.20;26.17;93733.94;4926089;28;97121;-48
2022/02/03 01:13:08;;;;;;;9.95;8.40;;;;;;;21.11;26.25;93741.97;4950628;28;99946;-50
2022/02/03 01:20:55;;;;;;;10.25;8.32;;;;;;;21.33;26.02;93739.53;4953074;28;96847;-51
2022/02/03 01:34:14;;;;;;;8.65;7.15;;;;;;;21.18;26.09;93722.59;4950300;28;97207;-50
2022/02/03 01:44:57;;;;;;;9.55;7.70;;;;;;;21.21;25.94;93713.53;4953436;28;98135;-49
2022/02/03 01:47:30;;;;;;;8.25;6.70;;;;;;;21.44;25.83;93740.09;4939403;28;99191;-48
2022/02/03 01:52:36;;;;;;;6.03;5.40;;;;;;;21.39;25.72;93743.34;4988046;28;97171;-50
2022/02/03 01:55:07;;;;;;;6.57;5.68;;;;;;;21.22;25.85;93741.75;4955287;28;100026;-50
2022/02/03 01:57:47;;;;;;;8.30;5.95;;;;;;;21.13;26.08;93745.06;4955673;28;99568;-52
2022/02/03 02:00:14;;;;;;;7.15;6.45;;;;;;;21.23;26.11;93757.81;4987479;28;96664;-50
2022/02/03 02:03:04;;;;;;;8.52;7.32;;;;;;;21.22;26.00;93759.00;4955749;28;96824;-46
2022/02/03 02:06:28;;;;;;;9.45;8.45;;;;;;;21.26;26.02;93765.19;4955321;28;99947;-51
2022/02/03 02:09:07;;;;;;;10.52;8.57;;;;;;;21.30;25.83;93767.84;4947638;28;99516;-50
2022/02/03 02:12:05;;;;;;;11.20;8.43;;;;;;;21.37;25.99;93775.94;4953590;28;97832;-51
2022/02/03 02:37:01;;;;;;;9.15;7.25;;;;;;;21.39;25.87;93794.75;4951812;28;96892;-47
2022/02/03 02:39:37;;;;;;;9.00;6.47;;;;;;;21.37;26.02;93797.91;4935675;28;99877;-47
2022/02/03 02:45:10;;;;;;;8.60;7.03;;;;;;;21.28;26.04;93804.00;4933885;28;96730;-48
2022/02/03 02:48:08;;;;;;;7.68;6.72;;;;;;;21.41;25.97;93803.34;4952518;28;96797;-48
2022/02/03 02:50:47;;;;;;;8.43;7.22;;;;;;;21.28;26.13;93806.75;4954607;28;99028;-46
2022/02/03 02:59:43;;;;;;;7.25;6.47;;;;;;;21.28;25.97;93812.25;4953359;28;97023;-47
2022/02/03 03:33:30;;;;;;;7.20;6.45;;;;;;;21.32;25.88;93845.91;4951865;28;96844;-51
2022/02/03 03:36:02;;;;;;;8.82;7.20;;;;;;;21.37;25.91;93846.59;4952648;28;99626;-50
2022/02/03 03:38:30;;;;;;;;;;;;;;;21.40;25.72;93863.00;4954470;28;99368;-47
2022/02/03 03:40:56;;;;;;;7.80;6.88;;;;;;;21.28;26.04;93856.19;4954370;28;96919;-49
2022/02/03 03:43:39;;;;;;;8.27;7.25;;;;;;;21.42;25.86;93863.34;4954713;28;96762;-54
2022/02/03 03:46:25;;;;;;;7.32;6.55;;;;;;;21.51;25.74;93862.78;4953964;28;100554;-47
2022/02/03 03:49:17;;;;;;;7.68;6.88;;;;;;;21.48;25.77;93861.66;4952292;28;99460;-47
2022/02/03 03:51:44;;;;;;;6.45;5.85;;;;;;;21.49;25.77;93859.69;4938828;28;97166;-50
2022/02/03 03:54:14;;;;;;;6.15;5.22;;;;;;;21.41;25.94;93863.78;4942029;28;96876;-51
2022/02/03 03:57:01;;;;;;;7.00;6.10;;;;;;;21.49;25.77;93870.66;4934392;28;100607;-52
2022/02/03 03:59:56;;;;;;;7.47;6.20;;;;;;;21.43;25.75;93873.16;4932724;28;99271;-51
2022/02/03 04:57:23;;;;;;;6.38;5.78;;;;;;;21.51;25.68;93967.19;4948852;28;96793;-47
2022/02/03 05:02:58;;;;;;;5.88;5.25;;;;;;;21.57;25.77;93981.97;4950151;28;96732;-48
2022/02/03 05:06:01;;;;;;;7.43;5.32;;;;;;;21.57;25.62;93983.97;4953131;28;99609;-49
2022/02/03 05:08:49;;;;;;;5.55;4.95;;;;;;;21.56;25.63;93985.94;4952087;28;99395;-47
2022/02/03 05:12:29;;;;;;;5.78;5.28;;;;;;;21.62;25.54;93995.25;4952059;28;96928;-47
2022/02/03 05:21:14;;;;;;;7.55;6.05;;;;;;;21.65;25.43;94004.66;4976236;28;97623;-46
2022/02/03 05:26:57;;;;;;;5.20;4.70;;;;;;;21.62;25.37;94017.25;4951825;28;96806;-47
2022/02/03 06:08:13;;;;;;;7.32;5.10;;;;;;;21.48;26.07;94100.69;4931289;28;96700;-52
2022/02/03 06:29:07;;;;;;;6.95;4.85;;;;;;;21.59;25.99;94136.22;4934789;28;96638;-48
2022/02/03 06:31:37;;;;;;;6.30;5.47;;;;;;;21.56;26.06;94141.78;4936652;28;96912;-51
2022/02/03 06:34:02;;;;;;;9.15;6.13;;;;;;;21.57;25.98;94141.34;4935930;28;99604;-52
2022/02/03 06:36:28;;;;;;;7.05;5.70;;;;;;;21.42;26.19;94145.53;4935489;28;99956;-49
2022/02/03 06:38:53;;;;;;;6.25;5.32;;;;;;;21.46;26.24;94158.03;4935627;28;96630;-48
2022/02/03 06:41:18;;;;;;;7.93;5.88;;;;;;;21.60;26.10;94168.00;4936106;28;96911;-49
2022/02/03 06:43:44;;;;;;;6.15;5.25;;;;;;;21.53;26.13;94170.84;4935977;28;99435;-48
2022/02/03 06:46:11;;;;;;;7.20;4.75;;;;;;;21.39;26.28;94171.88;4935507;28;99845;-48
2022/02/03 06:48:38;;;;;;;8.35;5.30;;;;;;;21.38;26.18;94155.81;4936132;28;96621;-52
2022/02/03 06:51:14;;;;;;;12.63;5.30;;;;;;;21.44;26.18;94181.63;4936020;28;96897;-46
2022/02/03 06:53:42;;;;;;;6.82;4.78;;;;;;;21.43;26.14;94180.06;4935670;28;100080;-50
2022/02/03 06:56:22;;;;;;;8.93;4.20;;;;;;;21.29;26.26;94187.31;4935972;28;99368;-49
2022/02/03 06:58:53;;;;;;;9.35;5.38;;;;;;;21.36;26.13;94188.41;4935960;28;96649;-52
2022/02/03 07:01:25;;;;;;;5.38;4.80;;;;;;;21.38;26.11;94188.78;4935922;28;96710;-49
2022/02/03 07:03:57;;;;;;;5.93;5.27;;;;;;;21.55;25.81;94186.94;4935076;28;99564;-50
2022/02/03 07:06:22;;;;;;;8.75;5.53;;;;;;;21.68;25.76;94189.91;4935341;28;99438;-54
2022/02/03 07:08:50;;;;;;;7.82;5.78;;;;;;;21.45;25.95;94194.16;4935722;28;96666;-52
2022/02/03 07:11:19;;;;;;;9.25;6.30;;;;;;;21.66;25.83;94192.28;4935853;28;96888;-48
2022/02/03 07:13:44;;;;;;;6.28;5.68;;;;;;;21.66;25.78;94193.06;4935611;28;99556;-50
2022/02/03 07:16:10;;;;;;;8.38;5.82;;;;;;;21.75;25.72;94200.78;4935072;28;99643;-50
2022/02/03 07:18:35;;;;;;;5.80;5.20;;;;;;;21.59;25.81;94206.91;4935770;28;96637;-51
2022/02/03 07:21:01;;;;;;;6.95;5.25;;;;;;;21.61;26.06;94208.03;4935846;28;96924;-50
2022/02/03 07:23:26;;;;;;;7.68;5.25;;;;;;;21.64;25.85;94211.16;4935253;28;99415;-46
2022/02/03 07:25:52;;;;;;;5.55;5.00;;;;;;;21.61;25.90;94213.53;4935256;28;99177;-50
2022/02/03 07:28:17;;;;;;;4.93;4.43;;;;;;;21.67;25.78;94210.34;4934912;28;96668;-50
2022/02/03 07:30:43;;;;;;;5.68;4.28;;;;;;;21.76;25.79;94218.81;4935278;28;96908;-51
2022/02/03 07:33:09;;;;;;;4.75;4.30;;;;;;;21.74;25.78;94221.22;4934934;28;99474;-52
2022/02/03 07:35:35;;;;;;;5.57;4.53;;;;;;;21.77;25.94;94225.88;4933931;28;99390;-47
2022/02/03 07:38:04;;;;;;;5.45;4.40;;;;;;;21.76;25.67;94218.81;4935115;28;96900;-49
2022/02/03 07:40:29;;;;;;;5.38;4.60;;;;;;;21.81;25.73;94232.09;4935210;28;96897;-49
2022/02/03 07:42:55;;;;;;;5.13;4.43;;;;;;;21.80;25.84;94236.03;4934912;28;99610;-48
2022/02/03 07:45:21;;;;;;;5.47;4.55;;;;;;;21.64;25.96;94236.69;4935225;28;99368;-51
2022/02/03 07:47:48;;;;;;;8.88;4.53;;;;;;;21.75;25.91;94244.75;4935173;28;96742;-49
2022/02/03 07:50:14;;;;;;;5.97;4.05;;;;;;;21.75;25.92;94251.06;4934964;28;96933;-55
2022/02/03 07:52:40;;;;;;;6.32;4.30;;;;;;;21.75;25.61;94247.50;4934198;28;99656;-50
2022/02/03 07:55:08;;;;;;;6.10;4.43;;;;;;;21.74;25.68;94243.22;4934640;28;99053;-50
2022/02/03 07:57:34;;;;;;;10.95;4.60;;;;;;;21.76;26.17;94257.31;4935032;28;96687;-48
2022/02/03 07:59:59;;;;;;;7.13;4.78;;;;;;;21.77;25.83;94253.38;4935157;28;96955;-48
2022/02/03 08:02:25;;;;;;;4.30;3.90;;;;;;;21.78;26.01;94260.41;4934523;28;98481;-49
2022/02/03 08:04:51;;;;;;;6.05;4.50;;;;;;;21.77;25.71;94264.38;4933286;28;98835;-52
2022/02/03 08:07:20;;;;;;;8.18;5.20;;;;;;;21.75;25.74;94261.25;4935049;28;96720;-48
2022/02/03 08:09:55;;;;;;;6.47;5.43;;;;;;;21.71;25.69;94282.53;4935018;28;96916;-49
2022/02/03 08:12:25;;;;;;;7.50;6.35;;;;;;;21.67;25.78;94281.78;4934508;28;99781;-48
2022/02/03 08:14:52;;;;;;;7.70;5.70;;;;;;;21.62;25.90;94285.78;4934471;28;99697;-48
2022/02/03 08:17:24;;;;;;;8.43;6.82;;;;;;;21.56;25.75;94277.19;4934260;28;96715;-45
2022/02/03 08:19:59;;;;;;;;;;;;;;;21.62;25.80;94286.56;4935382;28;96951;-46
2022/02/03 08:22:34;;;;;;;10.48;6.47;;;;;;;21.52;25.97;94301.19;4934302;28;100133;-50
2022/02/03 08:25:14;;;;;;;8.45;6.20;;;;;;;21.44;25.88;94305.25;4934142;28;99470;-49
2022/02/03 08:31:22;;;;;;;7.35;6.55;;;;;;;21.33;26.01;94308.13;4933007;28;96708;-49
2022/02/03 08:33:15;;;;;;;7.55;6.72;;;;;;;21.35;26.08;94321.47;4928496;28;97324;-49
2022/02/03 08:35:43;;;;;;;10.10;7.07;;;;;;;21.33;26.08;94319.09;4934485;28;99376;-49
2022/02/03 08:43:13;;;;;;;11.73;8.88;;;;;;;21.13;26.25;94332.69;4932604;28;97903;-49
2022/02/03 08:45:38;;;;;;;11.52;9.02;;;;;;;21.21;26.22;94334.19;4933428;28;99260;-52
2022/02/03 08:48:04;;;;;;;10.77;8.23;;;;;;;21.17;26.26;94338.94;4934202;28;96669;-52
2022/02/03 08:50:32;;;;;;;8.38;7.28;;;;;;;21.11;26.40;94340.56;4933966;28;96899;-47
2022/02/03 08:53:04;;;;;;;9.40;7.45;;;;;;;21.05;26.55;94339.47;4933901;28;99620;-46
2022/02/03 08:55:40;;;;;;;9.10;7.25;;;;;;;21.11;26.54;94346.06;4934004;28;99343;-52
2022/02/03 09:58:21;;;;;;;7.13;5.68;;;;;;;21.04;26.59;94396.34;4952339;28;97189;-49
2022/02/03 10:03:40;;;;;;;6.63;4.90;;;;;;;21.00;26.61;94393.63;4955687;28;97142;-51
2022/02/03 10:06:11;;;;;;;6.25;5.30;;;;;;;20.94;26.62;94400.75;4956169;28;96719;-49
2022/02/03 10:08:37;;;;;;;8.85;6.78;;;;;;;20.98;26.54;94398.75;4954723;28;99552;-55
2022/02/03 10:11:25;;;;;;;12.13;9.27;;;;;;;20.94;26.74;94394.50;4955742;28;99241;-52
2022/02/03 10:13:52;;;;;;;16.08;12.98;;;;;;;20.98;26.59;94398.75;4956142;28;96596;-52
2022/02/03 10:16:19;;;;;;;16.90;14.82;;;;;;;20.99;26.53;94400.31;4956098;28;96949;-55
2022/02/03 10:18:46;;;;;;;16.20;11.80;;;;;;;20.95;26.43;94410.53;4955776;28;99796;-54
2022/02/03 10:21:15;;;;;;;13.50;11.10;;;;;;;20.97;26.44;94402.69;4956067;28;99782;-54
2022/02/03 10:24:01;;;;;;;16.92;12.93;;;;;;;21.01;26.54;94408.91;4955647;28;96637;-55
2022/02/03 10:26:58;;;;;;;16.17;13.95;;;;;;;20.94;26.56;94400.75;4956003;28;96848;-56
2022/02/03 10:29:29;;;;;;;19.83;15.95;;;;;;;20.92;26.50;94400.38;4942819;28;99364;-55
2022/02/03 10:31:54;;;;;;;21.05;18.05;;;;;;;20.89;26.48;94401.22;4955942;28;100238;-51
2022/02/03 10:34:25;;;;;;;19.08;16.35;;;;;;;20.94;26.22;94403.50;4955882;28;96692;-50
2022/02/03 10:37:05;;;;;;;17.88;14.60;;;;;;;20.97;26.19;94399.94;4955447;28;96886;-49
2022/02/03 10:43:11;;;;;;;16.23;12.38;;;;;;;20.93;26.20;94398.44;4953713;28;97829;-54
2022/02/03 10:48:05;;;;;;;11.10;8.73;;;;;;;21.23;26.08;94397.72;4956088;28;96862;-47
2022/02/03 11:08:58;;;;;;;14.07;11.45;;;;;;;22.02;25.98;94390.47;4954244;28;97028;-55
2022/02/03 11:11:33;;;;;;;14.55;10.02;;;;;;;22.06;25.98;94380.19;4954493;28;99674;-49
2022/02/03 11:13:59;;;;;;;12.65;9.55;;;;;;;22.13;26.04;94379.28;4939340;28;99417;-47
2022/02/03 11:16:24;;;;;;;11.88;8.90;;;;;;;22.18;25.84;94378.81;4953862;28;96776;-49
2022/02/03 11:18:50;;;;;;;15.25;12.38;;;;;;;22.29;25.98;94375.13;4954864;28;96982;-50
2022/02/03 11:21:15;;;;;;;17.88;14.60;;;;;;;22.28;26.15;94373.59;4936795;28;98990;-45
2022/02/03 11:23:47;;;;;;;18.20;15.57;;;;;;;22.40;26.08;94380.47;4954708;28;99553;-50
2022/02/03 11:26:28;;;;;;;19.47;16.17;;;;;;;22.40;26.08;94375.75;4938448;28;96803;-48
2022/02/03 11:29:18;;;;;;;17.83;14.77;;;;;;;22.47;26.29;94375.66;4939931;28;96899;-49
2022/02/03 11:34:51;;;;;;;15.05;11.82;;;;;;;22.50;25.97;94387.81;4949106;28;97746;-49
2022/02/03 11:48:57;;;;;;;27.17;23.27;;;;;;;22.01;26.95;94383.41;4952099;28;97052;-46
2022/02/03 11:51:45;;;;;;;26.35;22.88;;;;;;;22.03;26.74;94385.75;4951305;28;98684;-46
2022/02/03 11:57:27;;;;;;;22.75;19.17;;;;;;;21.99;27.42;94379.53;4952286;28;97034;-47
2022/02/03 12:11:12;;;;;;;26.25;22.25;;;;;;;21.65;26.39;94383.13;4954525;28;96757;-50
2022/02/03 12:19:27;;;;;;;19.75;16.98;;;;;;;21.61;26.11;94378.41;4953740;28;96980;-48
2022/02/03 12:22:10;;;;;;;;;;;;;;;21.66;25.99;94403.91;4948678;28;96870;-48
2022/02/03 12:24:51;;;;;;;15.75;12.80;;;;;;;21.50;26.24;94394.25;4945237;28;97615;-47
2022/02/03 12:29:58;;;;;;;12.90;11.20;;;;;;;21.39;26.16;94386.16;4942441;28;97679;-47
2022/02/03 12:42:58;;;;;;;28.02;24.48;;;;;;;21.45;26.26;94391.97;4953513;28;96852;-47
2022/02/03 12:45:26;;;;;;;23.27;20.27;;;;;;;21.48;26.37;94391.16;4952816;28;96876;-50
2022/02/03 12:47:56;;;;;;;23.45;19.98;;;;;;;21.46;26.25;94402.56;4953601;28;99496;-47
2022/02/03 12:50:23;;;;;;;20.00;17.80;;;;;;;21.48;26.27;94407.66;4953318;28;99026;-44
2022/02/03 12:52:48;;;;;;;20.83;17.35;;;;;;;21.45;26.12;94401.00;4953763;28;96677;-48
2022/02/03 12:55:43;;;;;;;18.38;16.02;;;;;;;21.48;26.22;94407.66;4953816;28;96893;-48
2022/02/03 12:58:13;;;;;;;17.70;14.98;;;;;;;21.47;26.25;94401.34;4948510;28;99590;-48
2022/02/03 13:00:49;;;;;;;17.20;15.07;;;;;;;21.41;26.40;94410.47;4953592;28;99636;-47
2022/02/03 13:03:16;;;;;;;17.27;14.88;;;;;;;21.47;26.25;94406.09;4953598;28;96833;-49
2022/02/03 13:05:52;;;;;;;16.45;14.50;;;;;;;21.46;26.37;94410.03;4953217;28;96968;-51
2022/02/03 13:08:19;;;;;;;16.27;13.52;;;;;;;21.45;26.28;94419.47;4952609;28;99603;-55
2022/02/03 13:10:46;;;;;;;16.13;13.55;;;;;;;21.41;26.30;94419.47;4953290;28;99385;-53
2022/02/03 13:13:16;;;;;;;15.60;12.85;;;;;;;21.39;26.30;94426.59;4953129;28;96687;-55
2022/02/03 13:15:44;;;;;;;15.30;12.27;;;;;;;21.41;26.35;94435.19;4953509;28;96801;-56
2022/02/03 13:18:22;;;;;;;15.75;12.38;;;;;;;21.40;26.36;94428.16;4953183;28;99308;-54
2022/02/03 13:20:55;;;;;;;15.20;12.43;;;;;;;21.38;26.35;94430.53;4952946;28;99372;-56
2022/02/03 13:23:25;;;;;;;16.23;12.38;;;;;;;21.31;26.36;94426.66;4953498;28;96754;-53
2022/02/03 13:28:34;;;;;;;14.45;11.77;;;;;;;21.31;26.26;94440.41;4952950;28;97087;-52
2022/02/03 13:31:34;;;;;;;14.93;11.68;;;;;;;21.27;26.52;94445.16;4953082;28;99216;-54
2022/02/03 13:34:34;;;;;;;11.98;10.68;;;;;;;21.27;26.37;94447.91;4955340;28;96895;-48
2022/02/03 13:36:52;;;;;;;13.45;10.70;;;;;;;21.20;26.40;94467.19;4958622;28;96940;-50
2022/02/03 13:39:29;;;;;;;11.35;9.77;;;;;;;21.23;26.36;94468.34;4939637;28;99779;-47
2022/02/03 13:42:06;;;;;;;11.30;9.95;;;;;;;21.22;26.47;94475.81;4956522;28;99686;-48
2022/02/03 13:44:32;;;;;;;11.43;9.45;;;;;;;21.16;26.51;94467.25;4956696;28;96695;-53
2022/02/03 13:46:57;;;;;;;12.25;9.55;;;;;;;21.14;26.34;94466.88;4956783;28;96920;-51
2022/02/03 13:49:26;;;;;;;12.43;10.10;;;;;;;21.17;26.34;94470.75;4956025;28;99074;-51
2022/02/03 13:52:06;;;;;;;10.77;9.00;;;;;;;21.13;26.54;94470.00;4955455;28;99331;-47
2022/02/03 14:12:21;;;;;;;8.50;7.47;;;;;;;21.06;26.34;94461.84;4954364;28;97043;-49
2022/02/03 14:22:07;;;;;;;7.82;7.03;;;;;;;21.07;26.30;94468.88;4956035;28;97896;-53
2022/02/03 14:27:25;;;;;;;9.73;7.45;;;;;;;21.03;26.29;94475.19;4953341;28;96616;-49
2022/02/03 14:29:54;;;;;;;9.93;7.68;;;;;;;21.00;26.35;94472.50;4955831;28;96888;-52
2022/02/03 14:32:29;;;;;;;8.18;6.82;;;;;;;20.96;26.40;94472.50;4955420;28;99813;-52
2022/02/03 14:34:55;;;;;;;8.20;6.78;;;;;;;20.98;26.18;94481.13;4955929;28;97034;-51
2022/02/03 14:42:53;;;;;;;8.40;6.13;;;;;;;20.94;26.28;94480.38;4954319;28;99144;-49
2022/02/03 14:45:19;;;;;;;9.18;6.25;;;;;;;20.90;26.18;94485.13;4955466;28;99264;-48
2022/02/03 14:47:44;;;;;;;7.13;5.88;;;;;;;20.81;26.12;94485.59;4955834;28;96762;-51
2022/02/03 14:50:11;;;;;;;8.68;6.03;;;;;;;20.89;26.03;94497.31;4955488;28;97063;-51
2022/02/03 14:58:26;;;;;;;7.15;5.90;;;;;;;20.88;26.12;94503.97;4955200;28;96937;-52
2022/02/03 15:00:52;;;;;;;7.17;5.93;;;;;;;20.91;26.02;94508.63;4955750;28;96735;-52
2022/02/03 15:03:19;;;;;;;6.07;5.38;;;;;;;20.89;26.13;94511.03;4955174;28;99390;-50
2022/02/03 15:05:45;;;;;;;5.93;5.35;;;;;;;20.93;26.03;94510.97;4955095;28;99024;-45
2022/02/03 15:08:17;;;;;;;6.20;5.10;;;;;;;20.86;26.17;94511.84;4955434;28;96568;-48
2022/02/03 15:10:46;;;;;;;6.32;5.72;;;;;;;20.87;26.09;94524.38;4955685;28;96794;-51
2022/02/03 15:13:30;;;;;;;6.70;5.55;;;;;;;20.90;26.21;94529.06;4954841;28;100364;-47
2022/02/03 15:15:55;;;;;;;5.22;4.75;;;;;;;20.87;26.13;94527.13;4955041;28;99309;-49
2022/02/03 15:18:23;;;;;;;5.90;4.90;;;;;;;20.90;26.22;94537.28;4954765;28;96665;-49
2022/02/03 15:20:48;;;;;;;6.22;5.28;;;;;;;20.86;26.17;94539.28;4955202;28;96888;-47
2022/02/03 15:23:14;;;;;;;6.65;4.82;;;;;;;20.88;26.22;94547.91;4954892;28;99800;-48
2022/02/03 15:25:42;;;;;;;5.07;4.57;;;;;;;20.88;26.10;94537.69;4954873;28;99337;-46
2022/02/03 15:28:07;;;;;;;6.35;4.95;;;;;;;20.86;26.14;94544.78;4955238;28;96743;-45
2022/02/03 15:30:33;;;;;;;5.07;4.57;;;;;;;20.85;26.10;94543.97;4955124;28;97156;-48
2022/02/03 15:32:59;;;;;;;5.85;5.25;;;;;;;20.86;26.03;94545.53;4954506;28;98804;-48
2022/02/03 15:35:31;;;;;;;5.32;4.82;;;;;;;20.82;25.72;94549.50;4986499;28;100593;-45
2022/02/03 15:37:57;;;;;;;5.97;4.83;;;;;;;20.85;26.03;94554.19;4954408;28;96750;-47
2022/02/03 15:40:25;;;;;;;7.13;5.53;;;;;;;20.85;26.04;94554.19;4954733;28;96910;-49
2022/02/03 15:43:00;;;;;;;5.60;4.95;;;;;;;20.79;26.05;94556.56;4954106;28;99775;-50
2022/02/03 15:45:26;;;;;;;5.00;4.50;;;;;;;20.76;25.95;94557.34;4954394;28;99404;-48
2022/02/03 15:47:59;;;;;;;5.80;4.72;;;;;;;20.81;25.90;94567.16;4953266;28;96856;-50
2022/02/03 16:02:08;;;;;;;5.00;4.45;;;;;;;20.80;25.94;94607.53;4952943;28;97716;-47
2022/02/03 16:17:28;;;;;;;4.65;4.25;;;;;;;20.77;25.81;94629.50;4953804;28;98599;-53
2022/02/03 16:20:06;;;;;;;4.55;4.13;;;;;;;20.71;25.72;94638.16;4954159;28;96925;-49
2022/02/03 16:42:40;;;;;;;4.20;3.80;;;;;;;20.78;26.20;94670.28;4951007;28;97188;-47
2022/02/03 16:52:41;;;;;;;8.88;3.80;;;;;;;20.78;27.05;94686.75;4952608;28;96745;-47
2022/02/03 16:55:12;;;;;;;9.13;3.17;;;;;;;20.89;27.28;94694.97;4954046;28;96821;-50
2022/02/03 16:57:37;;;;;;;7.57;3.35;;;;;;;20.94;27.30;94699.25;4953003;28;99959;-53
2022/02/03 17:00:08;;;;;;;5.18;3.40;;;;;;;20.93;27.20;94708.66;4953232;28;99726;-50
2022/02/03 17:02:33;;;;;;;5.80;3.50;;;;;;;21.02;27.04;94718.00;4952880;28;96677;-47
2022/02/03 17:04:59;;;;;;;10.57;3.63;;;;;;;21.06;27.67;94711.72;4953222;28;96890;-56
2022/02/03 17:07:24;;;;;;;6.90;3.45;;;;;;;20.97;27.76;94718.44;4952764;28;99389;-55
2022/02/03 17:09:50;;;;;;;6.97;3.70;;;;;;;20.78;27.41;94707.94;4953040;28;99527;-49
2022/02/03 17:12:16;;;;;;;6.25;3.80;;;;;;;20.80;27.34;94711.06;4952898;28;96763;-54
2022/02/03 17:14:42;;;;;;;9.93;4.00;;;;;;;20.72;27.95;94716.56;4953561;28;96956;-53
2022/02/03 17:17:08;;;;;;;7.18;3.50;;;;;;;20.69;27.88;94711.88;4953051;28;99614;-50
2022/02/03 17:19:36;;;;;;;4.40;3.50;;;;;;;20.74;27.44;94714.22;4953071;28;99258;-54
2022/02/03 17:22:02;;;;;;;4.65;3.35;;;;;;;20.69;27.68;94720.09;4953374;28;96681;-54
2022/02/03 17:24:28;;;;;;;10.93;3.40;;;;;;;20.70;27.61;94713.44;4951562;28;97304;-57
2022/02/03 17:30:08;;;;;;;3.90;3.42;;;;;;;20.64;27.56;94723.25;4950767;28;97764;-48
2022/02/03 18:10:39;;;;;;;4.10;3.70;;;;;;;20.38;27.35;94780.16;4951943;28;97931;-48
2022/02/03 18:35:19;;;;;;;9.55;7.35;;;;;;;20.07;28.66;94781.75;4954469;28;97044;-49
2022/02/03 18:45:50;;;;;;;11.77;8.30;;;;;;;19.96;28.70;94784.50;4955327;28;96908;-52
2022/02/03 20:06:18;;;;;;;8.77;7.88;;;;;;;21.16;27.72;94793.28;4952523;28;97071;-57
2022/02/03 20:08:54;;;;;;;11.73;6.17;;;;;;;21.17;27.93;94800.34;4953626;28;98679;-51
2022/02/03 20:11:22;;;;;;;9.07;6.57;;;;;;;21.10;27.45;94811.34;4953828;28;99084;-56
2022/02/03 20:13:49;;;;;;;14.07;9.45;;;;;;;21.09;28.43;94804.28;4954114;28;96667;-51
2022/02/03 20:16:17;;;;;;;13.15;9.50;;;;;;;21.19;28.11;94792.47;4953514;28;96960;-48
2022/02/03 20:18:42;;;;;;;15.05;11.68;;;;;;;21.32;27.83;94804.59;4953448;28;99785;-49
2022/02/03 20:21:08;;;;;;;10.90;8.60;;;;;;;20.62;27.43;94791.47;4953336;28;99719;-48
2022/02/03 20:23:39;;;;;;;16.73;14.00;;;;;;;20.98;27.35;94794.13;4954296;28;96745;-53
2022/02/03 20:26:04;;;;;;;15.30;12.73;;;;;;;21.02;27.71;94794.91;4954634;28;96769;-48
2022/02/03 20:28:30;;;;;;;16.90;11.45;;;;;;;21.07;27.52;94803.91;4953851;28;99168;-50
2022/02/03 20:30:55;;;;;;;16.70;11.63;;;;;;;21.01;27.45;94804.31;4953610;28;99246;-47
2022/02/03 20:33:21;;;;;;;13.90;10.77;;;;;;;20.99;27.39;94812.16;4953244;28;96795;-49
2022/02/03 20:35:46;;;;;;;13.63;10.77;;;;;;;21.00;27.43;94811.00;4951601;28;97349;-54
2022/02/03 20:38:14;;;;;;;11.63;10.43;;;;;;;21.07;27.32;94801.97;4950707;28;99743;-48
2022/02/03 20:40:40;;;;;;;11.43;9.43;;;;;;;21.07;27.25;94803.91;4951211;28;100068;-54
2022/02/03 20:43:06;;;;;;;11.82;9.13;;;;;;;21.07;27.37;94812.16;4950983;28;97033;-48
2022/02/03 20:45:31;;;;;;;10.48;8.60;;;;;;;20.90;27.38;94802.78;4951930;28;97016;-51
2022/02/03 20:47:57;;;;;;;8.32;7.35;;;;;;;20.94;27.22;94798.84;4952845;28;99771;-48
2022/02/03 20:50:22;;;;;;;9.55;7.72;;;;;;;20.80;27.69;94809.91;4953647;28;99076;-44
2022/02/03 20:52:48;;;;;;;9.85;6.80;;;;;;;20.64;27.99;94797.34;4953682;28;96559;-47
2022/02/03 20:55:13;;;;;;;10.27;7.90;;;;;;;20.79;27.63;94789.13;4951009;28;96847;-45
2022/02/03 20:57:39;;;;;;;8.93;6.70;;;;;;;20.85;27.42;94790.28;4940305;28;99576;-46
2022/02/03 21:05:17;;;;;;;11.85;9.35;;;;;;;20.74;27.46;94795.75;4950547;28;96583;-48
2022/02/03 21:07:44;;;;;;;13.43;10.48;;;;;;;20.72;27.22;94798.91;4952711;28;99198;-47
2022/02/03 21:10:13;;;;;;;13.25;10.48;;;;;;;20.71;27.32;94789.09;4946407;28;99815;-47
2022/02/03 21:12:39;;;;;;;11.13;9.45;;;;;;;20.69;27.23;94796.97;4945733;28;98221;-42
2022/02/03 21:15:06;;;;;;;13.10;8.93;;;;;;;20.70;27.03;94795.78;4953350;28;96982;-43
2022/02/03 21:17:32;;;;;;;10.45;8.35;;;;;;;20.72;27.01;94807.13;4952905;28;99445;-48
2022/02/03 21:20:06;;;;;;;9.10;7.40;;;;;;;20.73;27.04;94805.97;4952908;28;99123;-43
2022/02/03 21:22:32;;;;;;;11.40;7.72;;;;;;;20.67;26.89;94810.28;4952268;28;96614;-43
2022/02/03 21:25:04;;;;;;;11.27;8.80;;;;;;;20.70;26.97;94812.25;4953051;28;96896;-43
2022/02/03 21:27:31;;;;;;;12.38;10.32;;;;;;;20.59;26.93;94800.50;4952937;28;100001;-45
2022/02/03 21:29:57;;;;;;;16.17;13.15;;;;;;;20.63;26.84;94798.53;4952477;28;99220;-43
2022/02/03 21:32:22;;;;;;;15.63;12.73;;;;;;;20.67;26.81;94804.00;4952963;28;96619;-48
2022/02/03 21:34:52;;;;;;;15.70;13.60;;;;;;;20.65;26.74;94801.66;4952949;28;96896;-47
2022/02/03 21:37:18;;;;;;;14.85;12.23;;;;;;;20.65;26.60;94801.66;4951924;28;99997;-44
2022/02/03 21:39:43;;;;;;;13.70;10.95;;;;;;;20.70;26.69;94805.97;4952665;28;99358;-44
2022/02/03 21:42:09;;;;;;;11.98;10.35;;;;;;;20.70;26.64;94801.25;4952779;28;96691;-46
2022/02/03 21:44:34;;;;;;;10.45;8.90;;;;;;;20.71;26.59;94796.53;4952666;28;96880;-46
2022/02/03 21:47:00;;;;;;;12.27;9.00;;;;;;;20.66;26.48;94789.50;4951908;28;101204;-47
2022/02/03 21:49:26;;;;;;;12.85;9.38;;;;;;;20.64;26.70;94786.38;4952326;28;97758;-47
2022/02/03 21:51:54;;;;;;;11.70;9.50;;;;;;;20.66;26.52;94797.75;4952229;28;97450;-45
2022/02/03 21:54:20;;;;;;;14.00;10.45;;;;;;;20.72;26.54;94796.16;4952727;28;96944;-45
2022/02/03 21:56:47;;;;;;;14.50;10.63;;;;;;;20.68;26.42;94798.13;4955738;28;99397;-42
2022/02/03 21:59:15;;;;;;;13.80;10.60;;;;;;;20.72;26.52;94798.09;4955740;28;100599;-46
2022/02/03 22:01:41;;;;;;;11.48;8.93;;;;;;;20.76;26.62;94787.13;4956097;28;96843;-48
2022/02/03 22:04:09;;;;;;;11.05;8.32;;;;;;;20.67;26.55;94791.06;4956381;28;96881;-49
2022/02/03 22:06:35;;;;;;;12.48;9.80;;;;;;;20.64;26.49;94791.88;4955719;28;98055;-43
2022/02/03 22:09:00;;;;;;;13.05;9.63;;;;;;;20.72;26.49;94787.94;4955686;28;99258;-49
2022/02/03 22:11:26;;;;;;;12.23;10.05;;;;;;;20.65;26.45;94793.44;4955345;28;96756;-43
2022/02/03 22:13:51;;;;;;;12.90;10.75;;;;;;;20.67;26.35;94791.06;4954235;28;96974;-43
2022/02/03 22:16:24;;;;;;;14.15;11.10;;;;;;;20.72;26.36;94785.19;4955605;28;99748;-45
2022/02/03 22:18:50;;;;;;;13.65;11.20;;;;;;;20.71;26.46;94777.34;4955724;28;99400;-44
2022/02/03 22:21:46;;;;;;;16.67;13.00;;;;;;;20.71;26.22;94778.13;4955711;28;97074;-46
2022/02/03 22:41:51;;;;;;;13.70;11.32;;;;;;;20.64;26.39;94802.84;4952603;28;97028;-46